Machichaco, Vizcaya

latitud = 43° 33' 39''N | longitud = 005° 41' 55''W
93 metros sobre el nivel del mar | datos mensuales

Fecha, hora, temperatura, viento dirección y velocidad, humedad y presión.

  • 21-06-2018 22:00:00 | 18.90°C | Oeste |30.00 km/h | 99.00% | 0.00 hPa
  • 21-06-2018 21:00:00 | 19.00°C | Oeste |34.00 km/h | 98.00% | 0.00 hPa
  • 21-06-2018 20:00:00 | 19.00°C | Oeste |39.00 km/h | 97.00% | 0.00 hPa
  • 21-06-2018 19:00:00 | 19.60°C | Oeste |31.00 km/h | 92.00% | 0.00 hPa
  • 21-06-2018 18:00:00 | 20.50°C | Oeste |31.00 km/h | 88.00% | 0.00 hPa
  • 21-06-2018 17:00:00 | 20.60°C | Oeste |31.00 km/h | 87.00% | 0.00 hPa
  • 21-06-2018 16:00:00 | 20.30°C | Oeste |32.00 km/h | 89.00% | 0.00 hPa
  • 21-06-2018 15:00:00 | 19.80°C | Oeste |31.00 km/h | 92.00% | 0.00 hPa
  • 21-06-2018 14:00:00 | 19.70°C | Oeste |30.00 km/h | 92.00% | 0.00 hPa
  • 21-06-2018 13:00:00 | 20.00°C | Oeste |27.00 km/h | 91.00% | 0.00 hPa
  • 21-06-2018 12:00:00 | 20.20°C | Oeste |21.00 km/h | 89.00% | 0.00 hPa
  • 21-06-2018 11:00:00 | 20.60°C | Oeste |21.00 km/h | 87.00% | 0.00 hPa
  • 21-06-2018 10:00:00 | 19.60°C | Oeste |11.00 km/h | 93.00% | 0.00 hPa
  • 21-06-2018 09:00:00 | 19.60°C | Oeste |13.00 km/h | 90.00% | 0.00 hPa
  • 21-06-2018 08:00:00 | 19.40°C | Oeste |19.00 km/h | 92.00% | 0.00 hPa
  • 21-06-2018 07:00:00 | 18.80°C | Oeste |25.00 km/h | 93.00% | 0.00 hPa
  • 21-06-2018 06:00:00 | 18.70°C | Oeste |33.00 km/h | 92.00% | 0.00 hPa
  • 21-06-2018 05:00:00 | 19.00°C | Oeste |27.00 km/h | 90.00% | 0.00 hPa
  • 21-06-2018 04:00:00 | 18.70°C | Oeste |28.00 km/h | 91.00% | 0.00 hPa
  • 21-06-2018 03:00:00 | 18.70°C | Oeste |22.00 km/h | 92.00% | 0.00 hPa
  • 21-06-2018 02:00:00 | 18.80°C | Oeste |27.00 km/h | 92.00% | 0.00 hPa
  • 21-06-2018 01:00:00 | 18.90°C | Oeste |36.00 km/h | 92.00% | 0.00 hPa
  • 21-06-2018 00:00:00 | 19.00°C | Oeste |32.00 km/h | 94.00% | 0.00 hPa
  • 20-06-2018 23:00:00 | 19.00°C | Oeste |27.00 km/h | 93.00% | 0.00 hPa